Mescaleros — FIOG — position and weather

sailwx.info

Track history (hours):
 
Tides and Currents Weather Stations Pressure Air Temp Water Temp Dewpoint Dewpoint Depression Visibility Wind Speed Wind Dir Waves Ship Positions

Mescaleros

Last reported at 2017-Nov-18 02:48 UTC. Time now 2017-Nov-23 18:49 UTC.
Position N 48°16' W 004°47'.

Length 12 m.

Type: Fishing. MMSI: 228849000.

Date/timePositionNaut miles runAvg speedWind from/ knotsBaromVisibWave heightAir tempDewpointWater temp
2017-Nov-18 02:48N 48°16' W 004°47'2 7.9
2017-Nov-18 02:30N 48°18' W 004°47'3 5.9
2017-Nov-18 02:00N 48°21' W 004°47'1 0.1
2017-Nov-17 14:04N 48°20' W 004°47'1 9.0
2017-Nov-17 14:00N 48°19' W 004°47'8 1.5
2017-Nov-17 08:50N 48°12' W 004°47'0 0.9
2017-Nov-17 08:27N 48°11' W 004°47'1 1.1
2017-Nov-17 07:58N 48°12' W 004°47'2 3.3
2017-Nov-17 07:28N 48°10' W 004°47'2 3.1
2017-Nov-17 06:58N 48°09' W 004°48'0 0.6
2017-Nov-17 06:23N 48°09' W 004°47'1 1.3
2017-Nov-17 05:57N 48°09' W 004°47'1 1.4
2017-Nov-17 05:30N 48°10' W 004°47'1 1.4
2017-Nov-17 04:58N 48°11' W 004°47'0 0.8
2017-Nov-17 04:30N 48°11' W 004°47'2 4.1
2017-Nov-17 03:59N 48°09' W 004°48'2 3.2
2017-Nov-17 03:22N 48°11' W 004°48'2 6.6
2017-Nov-17 03:00N 48°13' W 004°47'4 8.0
2017-Nov-17 02:30N 48°17' W 004°47'4 6.8
2017-Nov-17 01:58N 48°21' W 004°47'1 0.1
2017-Nov-16 14:35N 48°20' W 004°47'2 7.6
2017-Nov-16 14:22N 48°18' W 004°47'4 7.7
2017-Nov-16 13:55N 48°15' W 004°49'5 1.0
2017-Nov-16 08:18N 48°10' W 004°51'1 1.9
2017-Nov-16 08:00N 48°09' W 004°52'1 1.6
2017-Nov-16 07:23N 48°09' W 004°53'0 0.9
2017-Nov-16 06:56N 48°09' W 004°52'0 0.9
2017-Nov-16 06:24N 48°09' W 004°52'0 0.9
2017-Nov-16 06:00N 48°09' W 004°51'0 0.8
2017-Nov-16 05:30N 48°10' W 004°51'1 0.8
2017-Nov-16 04:53N 48°10' W 004°50'0 0.7
2017-Nov-16 04:24N 48°10' W 004°50'3 6.4
2017-Nov-16 03:57N 48°07' W 004°52'6 6.2
2017-Nov-16 02:59N 48°13' W 004°50'7 7.9
2017-Nov-16 02:05N 48°20' W 004°47'1 6.9
2017-Nov-16 02:00N 48°20' W 004°47'1 0.1
2017-Nov-15 15:08N 48°20' W 004°47'1 6.9
2017-Nov-15 14:58N 48°18' W 004°47'11 2.1
2017-Nov-15 10:00N 48°08' W 004°52'1 0.9
2017-Nov-15 09:25N 48°08' W 004°52'1 1.7
2017-Nov-15 08:55N 48°07' W 004°53'0 0.5
2017-Nov-15 08:23N 48°07' W 004°54'1 2.7
2017-Nov-15 07:59N 48°09' W 004°54'1 1.9
2017-Nov-15 07:29N 48°10' W 004°54'0 0.2
2017-Nov-15 06:52N 48°09' W 004°54'0 0.3
2017-Nov-15 05:53N 48°10' W 004°53'0 0.3
2017-Nov-15 05:17N 48°10' W 004°53'0 0.3
2017-Nov-15 04:58N 48°10' W 004°53'1 2.4
2017-Nov-15 04:28N 48°10' W 004°51'3 5.6
2017-Nov-15 03:59N 48°08' W 004°53'3 5.5
2017-Nov-15 03:27N 48°10' W 004°52'4 7.9
2017-Nov-15 02:58N 48°14' W 004°50'4 7.8
2017-Nov-15 02:24N 48°18' W 004°48'3 7.4
2017-Nov-15 02:00N 48°21' W 004°47'1 0.1
2017-Nov-14 14:56N 48°20' W 004°47'3 6.5
2017-Nov-14 14:28N 48°17' W 004°47'8 0.8
2017-Nov-14 04:11N 48°09' W 004°50'2 8.4
2017-Nov-14 04:00N 48°10' W 004°49'4 8.1
2017-Nov-14 03:29N 48°15' W 004°48'4 8.1
2017-Nov-14 02:58N 48°19' W 004°47'3 0.1
2017-Nov-13 01:58N 48°22' W 004°47'4 0.4
2017-Nov-12 15:53N 48°17' W 004°47'3 5.7
2017-Nov-12 15:24N 48°14' W 004°48'2 5.6
2017-Nov-12 15:00N 48°12' W 004°48'2 4.7
2017-Nov-12 14:30N 48°10' W 004°48'1 1.7
2017-Nov-12 14:00N 48°09' W 004°49'1 1.2
2017-Nov-12 13:27N 48°08' W 004°49'1 1.1
2017-Nov-12 12:58N 48°08' W 004°50'1 1.2
2017-Nov-12 12:28N 48°08' W 004°50'1 1.2
2017-Nov-12 12:00N 48°07' W 004°51'3 6.1
2017-Nov-12 11:26N 48°10' W 004°48'0 0.6
2017-Nov-12 11:00N 48°10' W 004°48'1 1.4
2017-Nov-12 10:30N 48°09' W 004°49'1 1.6
2017-Nov-12 09:56N 48°09' W 004°50'1 1.4
2017-Nov-12 09:23N 48°08' W 004°50'1 1.2
2017-Nov-12 08:54N 48°08' W 004°51'2 5.4
2017-Nov-12 08:30N 48°10' W 004°49'1 1.6
2017-Nov-12 07:58N 48°10' W 004°48'0 0.8
2017-Nov-12 07:27N 48°10' W 004°49'0 0.8
2017-Nov-12 07:00N 48°10' W 004°50'0 0.8
2017-Nov-12 06:30N 48°10' W 004°50'0 0.8
2017-Nov-12 06:00N 48°10' W 004°51'0 0.6
2017-Nov-12 05:29N 48°10' W 004°51'2 2.7
2017-Nov-12 04:56N 48°09' W 004°49'2 3.7
2017-Nov-12 04:30N 48°08' W 004°50'1 1.1
2017-Nov-12 04:00N 48°09' W 004°50'3 5.2
2017-Nov-12 03:28N 48°11' W 004°48'4 6.9
2017-Nov-12 02:57N 48°15' W 004°48'4 7.0
2017-Nov-12 02:19N 48°19' W 004°47'2 7.1
2017-Nov-12 01:59N 48°21' W 004°47'2 0.1
2017-Nov-10 16:09N 48°20' W 004°47'2 8.0
2017-Nov-10 15:56N 48°18' W 004°48'8 1.0
2017-Nov-10 08:44N 48°10' W 004°48'0 1.5
2017-Nov-10 08:29N 48°10' W 004°48'1 1.1
2017-Nov-10 07:58N 48°10' W 004°47'1 2.2
2017-Nov-10 07:29N 48°09' W 004°46'0 0.5
2017-Nov-10 07:00N 48°10' W 004°46'0 1.0
2017-Nov-10 06:30N 48°10' W 004°47'0 0.9
2017-Nov-10 05:59N 48°10' W 004°47'0 0.6
2017-Nov-10 05:30N 48°10' W 004°48'1 1.2
2017-Nov-10 05:00N 48°10' W 004°47'2 3.4
2017-Nov-10 04:22N 48°08' W 004°50'0 0.8
2017-Nov-10 03:59N 48°08' W 004°50'3 4.8
2017-Nov-10 03:27N 48°10' W 004°48'3 6.3
2017-Nov-10 03:00N 48°13' W 004°48'4 7.5
2017-Nov-10 02:30N 48°17' W 004°47'4 7.8
2017-Nov-10 01:59N 48°21' W 004°47'1 0.1
2017-Nov-09 16:19N 48°22' W 004°47'2 3.6
2017-Nov-09 15:52N 48°20' W 004°47'3 8.6
2017-Nov-09 15:30N 48°17' W 004°48'4 7.6
2017-Nov-09 14:58N 48°13' W 004°49'4 7.4
2017-Nov-09 14:23N 48°09' W 004°49'1 2.4
2017-Nov-09 13:56N 48°08' W 004°50'1 1.7
2017-Nov-09 13:16N 48°07' W 004°51'0 0.4
2017-Nov-09 12:59N 48°07' W 004°51'1 1.0
2017-Nov-09 12:26N 48°07' W 004°51'0 0.9
2017-Nov-09 11:56N 48°08' W 004°51'1 1.2
2017-Nov-09 11:13N 48°08' W 004°50'0 0.9
2017-Nov-09 10:58N 48°09' W 004°50'1 1.1
2017-Nov-09 10:23N 48°09' W 004°49'0 1.0
2017-Nov-09 09:58N 48°09' W 004°49'1 1.2
2017-Nov-09 09:29N 48°10' W 004°48'1 1.1
2017-Nov-09 08:58N 48°10' W 004°48'0 0.5
2017-Nov-09 08:30N 48°10' W 004°48'2 2.5
2017-Nov-09 07:46N 48°08' W 004°48'0 1.0
2017-Nov-09 07:25N 48°09' W 004°49'1 0.9
2017-Nov-09 06:49N 48°09' W 004°49'1 3.0
2017-Nov-09 06:28N 48°08' W 004°48'0 0.2
2017-Nov-09 05:58N 48°08' W 004°48'0 0.8
2017-Nov-09 05:28N 48°08' W 004°49'1 1.6
2017-Nov-09 04:58N 48°08' W 004°50'1 2.2
2017-Nov-09 04:30N 48°07' W 004°51'2 4.4
2017-Nov-09 04:00N 48°09' W 004°49'2 4.3
2017-Nov-09 03:30N 48°11' W 004°48'4 7.3
2017-Nov-09 02:59N 48°15' W 004°48'3 7.2
2017-Nov-09 02:30N 48°18' W 004°47'3 5.7
2017-Nov-09 02:00N 48°21' W 004°47'  
Track history (hours):
 
Tides and Currents Weather Stations Pressure Air Temp Water Temp Dewpoint Dewpoint Depression Visibility Wind Speed Wind Dir Waves Ship Positions

Mescaleros

Last reported at 2017-Nov-18 02:48 UTC. Time now 2017-Nov-23 18:49 UTC.
Position N 48°16' W 004°47'.

Length 12 m.

Type: Fishing. MMSI: 228849000.

Date/timePositionNaut miles runAvg speedWind from/ knotsBaromVisibWave heightAir tempDewpointWater temp
2017-Nov-18 02:48N 48°16' W 004°47'2 7.9
2017-Nov-18 02:30N 48°18' W 004°47'3 5.9
2017-Nov-18 02:00N 48°21' W 004°47'1 0.1
2017-Nov-17 14:04N 48°20' W 004°47'1 9.0
2017-Nov-17 14:00N 48°19' W 004°47'8 1.5
2017-Nov-17 08:50N 48°12' W 004°47'0 0.9
2017-Nov-17 08:27N 48°11' W 004°47'1 1.1
2017-Nov-17 07:58N 48°12' W 004°47'2 3.3
2017-Nov-17 07:28N 48°10' W 004°47'2 3.1
2017-Nov-17 06:58N 48°09' W 004°48'0 0.6
2017-Nov-17 06:23N 48°09' W 004°47'1 1.3
2017-Nov-17 05:57N 48°09' W 004°47'1 1.4
2017-Nov-17 05:30N 48°10' W 004°47'1 1.4
2017-Nov-17 04:58N 48°11' W 004°47'0 0.8
2017-Nov-17 04:30N 48°11' W 004°47'2 4.1
2017-Nov-17 03:59N 48°09' W 004°48'2 3.2
2017-Nov-17 03:22N 48°11' W 004°48'2 6.6
2017-Nov-17 03:00N 48°13' W 004°47'4 8.0
2017-Nov-17 02:30N 48°17' W 004°47'4 6.8
2017-Nov-17 01:58N 48°21' W 004°47'1 0.1
2017-Nov-16 14:35N 48°20' W 004°47'2 7.6
2017-Nov-16 14:22N 48°18' W 004°47'4 7.7
2017-Nov-16 13:55N 48°15' W 004°49'5 1.0
2017-Nov-16 08:18N 48°10' W 004°51'1 1.9
2017-Nov-16 08:00N 48°09' W 004°52'1 1.6
2017-Nov-16 07:23N 48°09' W 004°53'0 0.9
2017-Nov-16 06:56N 48°09' W 004°52'0 0.9
2017-Nov-16 06:24N 48°09' W 004°52'0 0.9
2017-Nov-16 06:00N 48°09' W 004°51'0 0.8
2017-Nov-16 05:30N 48°10' W 004°51'1 0.8
2017-Nov-16 04:53N 48°10' W 004°50'0 0.7
2017-Nov-16 04:24N 48°10' W 004°50'3 6.4
2017-Nov-16 03:57N 48°07' W 004°52'6 6.2
2017-Nov-16 02:59N 48°13' W 004°50'7 7.9
2017-Nov-16 02:05N 48°20' W 004°47'1 6.9
2017-Nov-16 02:00N 48°20' W 004°47'1 0.1
2017-Nov-15 15:08N 48°20' W 004°47'1 6.9
2017-Nov-15 14:58N 48°18' W 004°47'11 2.1
2017-Nov-15 10:00N 48°08' W 004°52'1 0.9
2017-Nov-15 09:25N 48°08' W 004°52'1 1.7
2017-Nov-15 08:55N 48°07' W 004°53'0 0.5
2017-Nov-15 08:23N 48°07' W 004°54'1 2.7
2017-Nov-15 07:59N 48°09' W 004°54'1 1.9
2017-Nov-15 07:29N 48°10' W 004°54'0 0.2
2017-Nov-15 06:52N 48°09' W 004°54'0 0.3
2017-Nov-15 05:53N 48°10' W 004°53'0 0.3
2017-Nov-15 05:17N 48°10' W 004°53'0 0.3
2017-Nov-15 04:58N 48°10' W 004°53'1 2.4
2017-Nov-15 04:28N 48°10' W 004°51'3 5.6
2017-Nov-15 03:59N 48°08' W 004°53'3 5.5
2017-Nov-15 03:27N 48°10' W 004°52'4 7.9
2017-Nov-15 02:58N 48°14' W 004°50'4 7.8
2017-Nov-15 02:24N 48°18' W 004°48'3 7.4
2017-Nov-15 02:00N 48°21' W 004°47'1 0.1
2017-Nov-14 14:56N 48°20' W 004°47'3 6.5
2017-Nov-14 14:28N 48°17' W 004°47'8 0.8
2017-Nov-14 04:11N 48°09' W 004°50'2 8.4
2017-Nov-14 04:00N 48°10' W 004°49'4 8.1
2017-Nov-14 03:29N 48°15' W 004°48'4 8.1
2017-Nov-14 02:58N 48°19' W 004°47'3 0.1
2017-Nov-13 01:58N 48°22' W 004°47'4 0.4
2017-Nov-12 15:53N 48°17' W 004°47'3 5.7
2017-Nov-12 15:24N 48°14' W 004°48'2 5.6
2017-Nov-12 15:00N 48°12' W 004°48'2 4.7
2017-Nov-12 14:30N 48°10' W 004°48'1 1.7
2017-Nov-12 14:00N 48°09' W 004°49'1 1.2
2017-Nov-12 13:27N 48°08' W 004°49'1 1.1
2017-Nov-12 12:58N 48°08' W 004°50'1 1.2
2017-Nov-12 12:28N 48°08' W 004°50'1 1.2
2017-Nov-12 12:00N 48°07' W 004°51'3 6.1
2017-Nov-12 11:26N 48°10' W 004°48'0 0.6
2017-Nov-12 11:00N 48°10' W 004°48'1 1.4
2017-Nov-12 10:30N 48°09' W 004°49'1 1.6
2017-Nov-12 09:56N 48°09' W 004°50'1 1.4
2017-Nov-12 09:23N 48°08' W 004°50'1 1.2
2017-Nov-12 08:54N 48°08' W 004°51'2 5.4
2017-Nov-12 08:30N 48°10' W 004°49'1 1.6
2017-Nov-12 07:58N 48°10' W 004°48'0 0.8
2017-Nov-12 07:27N 48°10' W 004°49'0 0.8
2017-Nov-12 07:00N 48°10' W 004°50'0 0.8
2017-Nov-12 06:30N 48°10' W 004°50'0 0.8
2017-Nov-12 06:00N 48°10' W 004°51'0 0.6
2017-Nov-12 05:29N 48°10' W 004°51'2 2.7
2017-Nov-12 04:56N 48°09' W 004°49'2 3.7
2017-Nov-12 04:30N 48°08' W 004°50'1 1.1
2017-Nov-12 04:00N 48°09' W 004°50'3 5.2
2017-Nov-12 03:28N 48°11' W 004°48'4 6.9
2017-Nov-12 02:57N 48°15' W 004°48'4 7.0
2017-Nov-12 02:19N 48°19' W 004°47'2 7.1
2017-Nov-12 01:59N 48°21' W 004°47'2 0.1
2017-Nov-10 16:09N 48°20' W 004°47'2 8.0
2017-Nov-10 15:56N 48°18' W 004°48'8 1.0
2017-Nov-10 08:44N 48°10' W 004°48'0 1.5
2017-Nov-10 08:29N 48°10' W 004°48'1 1.1
2017-Nov-10 07:58N 48°10' W 004°47'1 2.2
2017-Nov-10 07:29N 48°09' W 004°46'0 0.5
2017-Nov-10 07:00N 48°10' W 004°46'0 1.0
2017-Nov-10 06:30N 48°10' W 004°47'0 0.9
2017-Nov-10 05:59N 48°10' W 004°47'0 0.6
2017-Nov-10 05:30N 48°10' W 004°48'1 1.2
2017-Nov-10 05:00N 48°10' W 004°47'2 3.4
2017-Nov-10 04:22N 48°08' W 004°50'0 0.8
2017-Nov-10 03:59N 48°08' W 004°50'3 4.8
2017-Nov-10 03:27N 48°10' W 004°48'3 6.3
2017-Nov-10 03:00N 48°13' W 004°48'4 7.5
2017-Nov-10 02:30N 48°17' W 004°47'4 7.8
2017-Nov-10 01:59N 48°21' W 004°47'1 0.1
2017-Nov-09 16:19N 48°22' W 004°47'2 3.6
2017-Nov-09 15:52N 48°20' W 004°47'3 8.6
2017-Nov-09 15:30N 48°17' W 004°48'4 7.6
2017-Nov-09 14:58N 48°13' W 004°49'4 7.4
2017-Nov-09 14:23N 48°09' W 004°49'1 2.4
2017-Nov-09 13:56N 48°08' W 004°50'1 1.7
2017-Nov-09 13:16N 48°07' W 004°51'0 0.4
2017-Nov-09 12:59N 48°07' W 004°51'1 1.0
2017-Nov-09 12:26N 48°07' W 004°51'0 0.9
2017-Nov-09 11:56N 48°08' W 004°51'1 1.2
2017-Nov-09 11:13N 48°08' W 004°50'0 0.9
2017-Nov-09 10:58N 48°09' W 004°50'1 1.1
2017-Nov-09 10:23N 48°09' W 004°49'0 1.0
2017-Nov-09 09:58N 48°09' W 004°49'1 1.2
2017-Nov-09 09:29N 48°10' W 004°48'1 1.1
2017-Nov-09 08:58N 48°10' W 004°48'0 0.5
2017-Nov-09 08:30N 48°10' W 004°48'2 2.5
2017-Nov-09 07:46N 48°08' W 004°48'0 1.0
2017-Nov-09 07:25N 48°09' W 004°49'1 0.9
2017-Nov-09 06:49N 48°09' W 004°49'1 3.0
2017-Nov-09 06:28N 48°08' W 004°48'0 0.2
2017-Nov-09 05:58N 48°08' W 004°48'0 0.8
2017-Nov-09 05:28N 48°08' W 004°49'1 1.6
2017-Nov-09 04:58N 48°08' W 004°50'1 2.2
2017-Nov-09 04:30N 48°07' W 004°51'2 4.4
2017-Nov-09 04:00N 48°09' W 004°49'2 4.3
2017-Nov-09 03:30N 48°11' W 004°48'4 7.3
2017-Nov-09 02:59N 48°15' W 004°48'3 7.2
2017-Nov-09 02:30N 48°18' W 004°47'3 5.7
2017-Nov-09 02:00N 48°21' W 004°47'  

Dump ship's entire track history